sensor_id;sensor_type;location;lat;lon;timestamp;P1;durP1;ratioP1;P2;durP2;ratioP2
11263;SDS011;5689;48.798;9.070;2023-07-31T00:01:43;0.10;;;0.10;;
11263;SDS011;5689;48.798;9.070;2023-07-31T00:04:11;0.10;;;0.10;;
11263;SDS011;5689;48.798;9.070;2023-07-31T00:06:39;0.10;;;0.10;;
11263;SDS011;5689;48.798;9.070;2023-07-31T00:09:09;0.10;;;0.10;;
11263;SDS011;5689;48.798;9.070;2023-07-31T00:11:37;0.10;;;0.10;;
11263;SDS011;5689;48.798;9.070;2023-07-31T00:14:05;0.10;;;0.10;;
11263;SDS011;5689;48.798;9.070;2023-07-31T00:16:33;0.10;;;0.10;;
11263;SDS011;5689;48.798;9.070;2023-07-31T00:19:00;0.10;;;0.10;;
11263;SDS011;5689;48.798;9.070;2023-07-31T00:21:28;0.10;;;0.10;;
11263;SDS011;5689;48.798;9.070;2023-07-31T00:23:56;0.15;;;0.15;;
11263;SDS011;5689;48.798;9.070;2023-07-31T00:26:26;0.10;;;0.10;;
11263;SDS011;5689;48.798;9.070;2023-07-31T00:28:54;0.10;;;0.10;;
11263;SDS011;5689;48.798;9.070;2023-07-31T00:31:21;0.10;;;0.10;;
11263;SDS011;5689;48.798;9.070;2023-07-31T00:33:49;0.10;;;0.10;;
11263;SDS011;5689;48.798;9.070;2023-07-31T00:36:17;0.10;;;0.10;;
11263;SDS011;5689;48.798;9.070;2023-07-31T00:38:45;0.10;;;0.10;;
11263;SDS011;5689;48.798;9.070;2023-07-31T00:41:13;0.10;;;0.10;;
11263;SDS011;5689;48.798;9.070;2023-07-31T00:43:43;0.10;;;0.10;;
11263;SDS011;5689;48.798;9.070;2023-07-31T00:46:10;0.10;;;0.10;;
11263;SDS011;5689;48.798;9.070;2023-07-31T00:48:39;0.10;;;0.10;;
11263;SDS011;5689;48.798;9.070;2023-07-31T00:51:08;0.10;;;0.10;;
11263;SDS011;5689;48.798;9.070;2023-07-31T00:53:36;0.03;;;0.03;;
11263;SDS011;5689;48.798;9.070;2023-07-31T00:56:05;0.00;;;0.00;;
11263;SDS011;5689;48.798;9.070;2023-07-31T00:58:34;0.10;;;0.10;;
11263;SDS011;5689;48.798;9.070;2023-07-31T01:01:03;0.10;;;0.10;;
11263;SDS011;5689;48.798;9.070;2023-07-31T01:03:31;0.10;;;0.10;;
11263;SDS011;5689;48.798;9.070;2023-07-31T01:06:02;0.10;;;0.10;;
11263;SDS011;5689;48.798;9.070;2023-07-31T01:08:42;0.10;;;0.10;;
11263;SDS011;5689;48.798;9.070;2023-07-31T01:11:19;0.10;;;0.10;;
11263;SDS011;5689;48.798;9.070;2023-07-31T01:13:55;0.10;;;0.10;;
11263;SDS011;5689;48.798;9.070;2023-07-31T01:16:26;0.10;;;0.10;;
11263;SDS011;5689;48.798;9.070;2023-07-31T01:18:54;0.10;;;0.10;;
11263;SDS011;5689;48.798;9.070;2023-07-31T01:21:30;0.10;;;0.10;;
11263;SDS011;5689;48.798;9.070;2023-07-31T01:24:20;0.10;;;0.10;;
11263;SDS011;5689;48.798;9.070;2023-07-31T01:26:53;0.10;;;0.10;;
11263;SDS011;5689;48.798;9.070;2023-07-31T01:29:27;0.10;;;0.10;;
11263;SDS011;5689;48.798;9.070;2023-07-31T01:32:01;0.20;;;0.20;;
11263;SDS011;5689;48.798;9.070;2023-07-31T01:34:30;0.10;;;0.10;;
11263;SDS011;5689;48.798;9.070;2023-07-31T01:36:59;0.10;;;0.10;;
11263;SDS011;5689;48.798;9.070;2023-07-31T01:39:27;0.10;;;0.10;;
11263;SDS011;5689;48.798;9.070;2023-07-31T01:41:57;0.10;;;0.10;;
11263;SDS011;5689;48.798;9.070;2023-07-31T01:44:25;0.10;;;0.10;;
11263;SDS011;5689;48.798;9.070;2023-07-31T01:46:53;0.10;;;0.10;;
11263;SDS011;5689;48.798;9.070;2023-07-31T01:49:21;0.10;;;0.10;;
11263;SDS011;5689;48.798;9.070;2023-07-31T01:51:49;0.10;;;0.10;;
11263;SDS011;5689;48.798;9.070;2023-07-31T01:54:16;0.10;;;0.10;;
11263;SDS011;5689;48.798;9.070;2023-07-31T01:56:44;0.10;;;0.10;;
11263;SDS011;5689;48.798;9.070;2023-07-31T01:59:14;0.10;;;0.10;;
11263;SDS011;5689;48.798;9.070;2023-07-31T02:01:42;0.10;;;0.10;;
11263;SDS011;5689;48.798;9.070;2023-07-31T02:04:10;0.10;;;0.10;;
11263;SDS011;5689;48.798;9.070;2023-07-31T02:06:38;0.10;;;0.10;;
11263;SDS011;5689;48.798;9.070;2023-07-31T02:09:06;0.10;;;0.10;;
11263;SDS011;5689;48.798;9.070;2023-07-31T02:11:34;0.10;;;0.10;;
11263;SDS011;5689;48.798;9.070;2023-07-31T02:14:02;0.10;;;0.10;;
11263;SDS011;5689;48.798;9.070;2023-07-31T02:16:31;0.10;;;0.10;;
11263;SDS011;5689;48.798;9.070;2023-07-31T02:19:00;0.10;;;0.10;;
11263;SDS011;5689;48.798;9.070;2023-07-31T02:21:28;0.10;;;0.10;;
11263;SDS011;5689;48.798;9.070;2023-07-31T02:23:56;0.10;;;0.10;;
11263;SDS011;5689;48.798;9.070;2023-07-31T02:26:24;0.10;;;0.10;;
11263;SDS011;5689;48.798;9.070;2023-07-31T02:28:52;0.10;;;0.10;;
11263;SDS011;5689;48.798;9.070;2023-07-31T02:31:20;0.00;;;0.00;;
11263;SDS011;5689;48.798;9.070;2023-07-31T02:33:49;0.10;;;0.10;;
11263;SDS011;5689;48.798;9.070;2023-07-31T02:36:17;0.13;;;0.13;;
11263;SDS011;5689;48.798;9.070;2023-07-31T02:38:45;0.10;;;0.10;;
11263;SDS011;5689;48.798;9.070;2023-07-31T02:41:13;0.10;;;0.10;;
11263;SDS011;5689;48.798;9.070;2023-07-31T02:43:41;0.10;;;0.10;;
11263;SDS011;5689;48.798;9.070;2023-07-31T02:46:09;0.10;;;0.10;;
11263;SDS011;5689;48.798;9.070;2023-07-31T02:48:37;0.10;;;0.10;;
11263;SDS011;5689;48.798;9.070;2023-07-31T02:51:06;0.10;;;0.10;;
11263;SDS011;5689;48.798;9.070;2023-07-31T02:53:34;0.10;;;0.10;;
11263;SDS011;5689;48.798;9.070;2023-07-31T02:56:02;0.10;;;0.10;;
11263;SDS011;5689;48.798;9.070;2023-07-31T02:58:30;0.20;;;0.20;;
11263;SDS011;5689;48.798;9.070;2023-07-31T03:00:58;0.10;;;0.10;;
11263;SDS011;5689;48.798;9.070;2023-07-31T03:03:26;0.10;;;0.10;;
11263;SDS011;5689;48.798;9.070;2023-07-31T03:05:54;0.10;;;0.10;;
11263;SDS011;5689;48.798;9.070;2023-07-31T03:08:24;0.10;;;0.10;;
11263;SDS011;5689;48.798;9.070;2023-07-31T03:10:52;0.10;;;0.10;;
11263;SDS011;5689;48.798;9.070;2023-07-31T03:13:21;0.10;;;0.10;;
11263;SDS011;5689;48.798;9.070;2023-07-31T03:15:49;0.10;;;0.10;;
11263;SDS011;5689;48.798;9.070;2023-07-31T03:18:17;0.10;;;0.10;;
11263;SDS011;5689;48.798;9.070;2023-07-31T03:20:45;0.10;;;0.10;;
11263;SDS011;5689;48.798;9.070;2023-07-31T03:23:13;0.10;;;0.10;;
11263;SDS011;5689;48.798;9.070;2023-07-31T03:25:52;0.20;;;0.20;;
11263;SDS011;5689;48.798;9.070;2023-07-31T03:28:27;0.13;;;0.13;;
11263;SDS011;5689;48.798;9.070;2023-07-31T03:30:55;0.10;;;0.10;;
11263;SDS011;5689;48.798;9.070;2023-07-31T03:33:23;0.20;;;0.20;;
11263;SDS011;5689;48.798;9.070;2023-07-31T03:35:53;0.10;;;0.10;;
11263;SDS011;5689;48.798;9.070;2023-07-31T03:38:21;0.10;;;0.10;;
11263;SDS011;5689;48.798;9.070;2023-07-31T03:40:51;0.10;;;0.10;;
11263;SDS011;5689;48.798;9.070;2023-07-31T03:43:18;0.10;;;0.10;;
11263;SDS011;5689;48.798;9.070;2023-07-31T03:45:46;0.13;;;0.13;;
11263;SDS011;5689;48.798;9.070;2023-07-31T03:48:14;0.10;;;0.10;;
11263;SDS011;5689;48.798;9.070;2023-07-31T03:50:43;0.10;;;0.10;;
11263;SDS011;5689;48.798;9.070;2023-07-31T03:53:11;0.10;;;0.10;;
11263;SDS011;5689;48.798;9.070;2023-07-31T03:55:39;0.10;;;0.10;;
11263;SDS011;5689;48.798;9.070;2023-07-31T03:58:08;0.20;;;0.20;;
11263;SDS011;5689;48.798;9.070;2023-07-31T04:00:36;0.10;;;0.10;;
11263;SDS011;5689;48.798;9.070;2023-07-31T04:03:04;0.10;;;0.10;;
11263;SDS011;5689;48.798;9.070;2023-07-31T04:05:32;0.10;;;0.10;;
11263;SDS011;5689;48.798;9.070;2023-07-31T04:08:00;0.10;;;0.10;;
11263;SDS011;5689;48.798;9.070;2023-07-31T04:10:28;0.10;;;0.10;;
11263;SDS011;5689;48.798;9.070;2023-07-31T04:12:57;0.10;;;0.10;;
11263;SDS011;5689;48.798;9.070;2023-07-31T04:15:26;0.17;;;0.17;;
11263;SDS011;5689;48.798;9.070;2023-07-31T04:17:54;0.10;;;0.10;;
11263;SDS011;5689;48.798;9.070;2023-07-31T04:20:22;0.10;;;0.10;;
11263;SDS011;5689;48.798;9.070;2023-07-31T04:22:50;0.10;;;0.10;;
11263;SDS011;5689;48.798;9.070;2023-07-31T04:25:18;0.10;;;0.10;;
11263;SDS011;5689;48.798;9.070;2023-07-31T04:27:46;0.10;;;0.10;;
11263;SDS011;5689;48.798;9.070;2023-07-31T04:30:14;0.10;;;0.10;;
11263;SDS011;5689;48.798;9.070;2023-07-31T04:32:44;0.10;;;0.10;;
11263;SDS011;5689;48.798;9.070;2023-07-31T04:35:12;0.10;;;0.10;;
11263;SDS011;5689;48.798;9.070;2023-07-31T04:37:39;0.10;;;0.10;;
11263;SDS011;5689;48.798;9.070;2023-07-31T04:40:08;0.13;;;0.13;;
11263;SDS011;5689;48.798;9.070;2023-07-31T04:42:36;0.10;;;0.10;;
11263;SDS011;5689;48.798;9.070;2023-07-31T04:45:04;0.10;;;0.10;;
11263;SDS011;5689;48.798;9.070;2023-07-31T04:47:33;0.10;;;0.10;;
11263;SDS011;5689;48.798;9.070;2023-07-31T04:50:02;0.10;;;0.10;;
11263;SDS011;5689;48.798;9.070;2023-07-31T04:52:30;0.10;;;0.10;;
11263;SDS011;5689;48.798;9.070;2023-07-31T04:54:58;0.00;;;0.00;;
11263;SDS011;5689;48.798;9.070;2023-07-31T04:57:26;0.10;;;0.10;;
11263;SDS011;5689;48.798;9.070;2023-07-31T04:59:54;0.10;;;0.10;;
11263;SDS011;5689;48.798;9.070;2023-07-31T05:02:22;0.10;;;0.10;;
11263;SDS011;5689;48.798;9.070;2023-07-31T05:04:50;0.10;;;0.10;;
11263;SDS011;5689;48.798;9.070;2023-07-31T05:07:20;0.00;;;0.00;;
11263;SDS011;5689;48.798;9.070;2023-07-31T05:09:48;0.10;;;0.10;;
11263;SDS011;5689;48.798;9.070;2023-07-31T05:12:15;0.10;;;0.10;;
11263;SDS011;5689;48.798;9.070;2023-07-31T05:14:44;0.10;;;0.10;;
11263;SDS011;5689;48.798;9.070;2023-07-31T05:17:11;0.10;;;0.10;;
11263;SDS011;5689;48.798;9.070;2023-07-31T05:19:39;0.10;;;0.10;;
11263;SDS011;5689;48.798;9.070;2023-07-31T05:22:08;0.10;;;0.10;;
11263;SDS011;5689;48.798;9.070;2023-07-31T05:24:37;0.00;;;0.00;;
11263;SDS011;5689;48.798;9.070;2023-07-31T05:27:05;0.10;;;0.10;;
11263;SDS011;5689;48.798;9.070;2023-07-31T05:29:33;0.10;;;0.10;;
11263;SDS011;5689;48.798;9.070;2023-07-31T05:32:01;0.10;;;0.10;;
11263;SDS011;5689;48.798;9.070;2023-07-31T05:34:30;0.10;;;0.10;;
11263;SDS011;5689;48.798;9.070;2023-07-31T05:36:58;0.10;;;0.10;;
11263;SDS011;5689;48.798;9.070;2023-07-31T05:39:26;0.10;;;0.10;;
11263;SDS011;5689;48.798;9.070;2023-07-31T05:41:55;0.10;;;0.10;;
11263;SDS011;5689;48.798;9.070;2023-07-31T05:44:23;0.10;;;0.10;;
11263;SDS011;5689;48.798;9.070;2023-07-31T05:46:51;0.10;;;0.10;;
11263;SDS011;5689;48.798;9.070;2023-07-31T05:49:19;0.10;;;0.10;;
11263;SDS011;5689;48.798;9.070;2023-07-31T05:51:47;0.10;;;0.10;;
11263;SDS011;5689;48.798;9.070;2023-07-31T05:54:14;0.10;;;0.10;;
11263;SDS011;5689;48.798;9.070;2023-07-31T05:56:42;0.10;;;0.10;;
11263;SDS011;5689;48.798;9.070;2023-07-31T05:59:12;0.10;;;0.10;;
11263;SDS011;5689;48.798;9.070;2023-07-31T06:01:40;0.10;;;0.10;;
11263;SDS011;5689;48.798;9.070;2023-07-31T06:04:08;0.10;;;0.10;;
11263;SDS011;5689;48.798;9.070;2023-07-31T06:06:36;0.10;;;0.10;;
11263;SDS011;5689;48.798;9.070;2023-07-31T06:09:04;0.00;;;0.00;;
11263;SDS011;5689;48.798;9.070;2023-07-31T06:11:33;0.10;;;0.10;;
11263;SDS011;5689;48.798;9.070;2023-07-31T06:14:01;0.10;;;0.10;;
11263;SDS011;5689;48.798;9.070;2023-07-31T06:16:30;0.10;;;0.10;;
11263;SDS011;5689;48.798;9.070;2023-07-31T06:18:58;0.10;;;0.10;;
11263;SDS011;5689;48.798;9.070;2023-07-31T06:21:26;0.10;;;0.10;;
11263;SDS011;5689;48.798;9.070;2023-07-31T06:23:54;0.10;;;0.10;;
11263;SDS011;5689;48.798;9.070;2023-07-31T06:26:22;0.15;;;0.15;;
11263;SDS011;5689;48.798;9.070;2023-07-31T06:28:50;0.10;;;0.10;;
11263;SDS011;5689;48.798;9.070;2023-07-31T06:31:18;0.10;;;0.10;;
11263;SDS011;5689;48.798;9.070;2023-07-31T06:33:50;0.10;;;0.10;;
11263;SDS011;5689;48.798;9.070;2023-07-31T06:36:18;0.00;;;0.00;;
11263;SDS011;5689;48.798;9.070;2023-07-31T06:38:46;0.10;;;0.10;;
11263;SDS011;5689;48.798;9.070;2023-07-31T06:41:14;0.10;;;0.10;;
11263;SDS011;5689;48.798;9.070;2023-07-31T06:43:42;0.10;;;0.10;;
11263;SDS011;5689;48.798;9.070;2023-07-31T06:46:10;0.10;;;0.10;;
11263;SDS011;5689;48.798;9.070;2023-07-31T06:48:38;0.13;;;0.13;;
11263;SDS011;5689;48.798;9.070;2023-07-31T06:51:07;0.10;;;0.10;;
11263;SDS011;5689;48.798;9.070;2023-07-31T06:53:35;0.10;;;0.10;;
11263;SDS011;5689;48.798;9.070;2023-07-31T06:56:03;0.10;;;0.10;;
11263;SDS011;5689;48.798;9.070;2023-07-31T06:58:31;0.10;;;0.10;;
11263;SDS011;5689;48.798;9.070;2023-07-31T07:00:59;0.10;;;0.10;;
11263;SDS011;5689;48.798;9.070;2023-07-31T07:03:27;0.10;;;0.10;;
11263;SDS011;5689;48.798;9.070;2023-07-31T07:05:56;0.10;;;0.10;;
11263;SDS011;5689;48.798;9.070;2023-07-31T07:08:25;0.08;;;0.08;;
11263;SDS011;5689;48.798;9.070;2023-07-31T07:10:53;0.10;;;0.10;;
11263;SDS011;5689;48.798;9.070;2023-07-31T07:13:21;0.10;;;0.10;;
11263;SDS011;5689;48.798;9.070;2023-07-31T07:15:49;0.08;;;0.08;;
11263;SDS011;5689;48.798;9.070;2023-07-31T07:18:18;0.10;;;0.10;;
11263;SDS011;5689;48.798;9.070;2023-07-31T07:20:50;0.10;;;0.10;;
11263;SDS011;5689;48.798;9.070;2023-07-31T07:23:19;0.10;;;0.10;;
11263;SDS011;5689;48.798;9.070;2023-07-31T07:25:49;0.10;;;0.10;;
11263;SDS011;5689;48.798;9.070;2023-07-31T07:28:19;0.00;;;0.00;;
11263;SDS011;5689;48.798;9.070;2023-07-31T07:30:50;0.10;;;0.10;;
11263;SDS011;5689;48.798;9.070;2023-07-31T07:33:19;0.10;;;0.10;;
11263;SDS011;5689;48.798;9.070;2023-07-31T07:35:47;0.00;;;0.00;;
11263;SDS011;5689;48.798;9.070;2023-07-31T07:38:15;0.10;;;0.10;;
11263;SDS011;5689;48.798;9.070;2023-07-31T07:40:43;0.10;;;0.10;;
11263;SDS011;5689;48.798;9.070;2023-07-31T07:43:14;0.10;;;0.10;;
11263;SDS011;5689;48.798;9.070;2023-07-31T07:45:42;0.00;;;0.00;;
11263;SDS011;5689;48.798;9.070;2023-07-31T07:48:10;0.00;;;0.00;;
11263;SDS011;5689;48.798;9.070;2023-07-31T07:50:38;0.10;;;0.10;;
11263;SDS011;5689;48.798;9.070;2023-07-31T07:53:06;0.10;;;0.10;;
11263;SDS011;5689;48.798;9.070;2023-07-31T07:55:35;0.10;;;0.10;;
11263;SDS011;5689;48.798;9.070;2023-07-31T07:58:03;0.10;;;0.10;;
11263;SDS011;5689;48.798;9.070;2023-07-31T08:00:32;0.08;;;0.08;;
11263;SDS011;5689;48.798;9.070;2023-07-31T08:03:00;0.00;;;0.00;;
11263;SDS011;5689;48.798;9.070;2023-07-31T08:05:28;0.00;;;0.00;;
11263;SDS011;5689;48.798;9.070;2023-07-31T08:08:00;0.00;;;0.00;;
11263;SDS011;5689;48.798;9.070;2023-07-31T08:10:28;0.00;;;0.00;;
11263;SDS011;5689;48.798;9.070;2023-07-31T08:12:56;0.00;;;0.00;;
11263;SDS011;5689;48.798;9.070;2023-07-31T08:15:24;0.10;;;0.10;;
11263;SDS011;5689;48.798;9.070;2023-07-31T08:17:53;0.10;;;0.10;;
11263;SDS011;5689;48.798;9.070;2023-07-31T08:20:21;0.10;;;0.10;;
11263;SDS011;5689;48.798;9.070;2023-07-31T08:22:49;0.10;;;0.10;;
11263;SDS011;5689;48.798;9.070;2023-07-31T08:25:17;0.10;;;0.10;;
11263;SDS011;5689;48.798;9.070;2023-07-31T08:27:45;0.00;;;0.00;;
11263;SDS011;5689;48.798;9.070;2023-07-31T08:30:13;0.00;;;0.00;;
11263;SDS011;5689;48.798;9.070;2023-07-31T08:32:41;0.00;;;0.00;;
11263;SDS011;5689;48.798;9.070;2023-07-31T08:35:10;0.00;;;0.00;;
11263;SDS011;5689;48.798;9.070;2023-07-31T08:37:38;0.00;;;0.00;;
11263;SDS011;5689;48.798;9.070;2023-07-31T08:40:07;0.00;;;0.00;;
11263;SDS011;5689;48.798;9.070;2023-07-31T08:42:42;0.00;;;0.00;;
11263;SDS011;5689;48.798;9.070;2023-07-31T08:45:13;0.00;;;0.00;;
11263;SDS011;5689;48.798;9.070;2023-07-31T08:47:44;0.00;;;0.00;;
11263;SDS011;5689;48.798;9.070;2023-07-31T08:50:15;0.00;;;0.00;;
11263;SDS011;5689;48.798;9.070;2023-07-31T08:52:45;0.00;;;0.00;;
11263;SDS011;5689;48.798;9.070;2023-07-31T08:55:13;0.00;;;0.00;;
11263;SDS011;5689;48.798;9.070;2023-07-31T08:57:42;0.00;;;0.00;;
11263;SDS011;5689;48.798;9.070;2023-07-31T09:00:10;0.00;;;0.00;;
11263;SDS011;5689;48.798;9.070;2023-07-31T09:02:41;0.00;;;0.00;;
11263;SDS011;5689;48.798;9.070;2023-07-31T09:05:12;0.00;;;0.00;;
11263;SDS011;5689;48.798;9.070;2023-07-31T09:07:43;0.00;;;0.00;;
11263;SDS011;5689;48.798;9.070;2023-07-31T09:10:13;0.03;;;0.03;;
11263;SDS011;5689;48.798;9.070;2023-07-31T09:12:41;0.00;;;0.00;;
11263;SDS011;5689;48.798;9.070;2023-07-31T09:15:10;0.10;;;0.10;;
11263;SDS011;5689;48.798;9.070;2023-07-31T09:17:43;0.10;;;0.10;;
11263;SDS011;5689;48.798;9.070;2023-07-31T09:20:15;0.10;;;0.10;;
11263;SDS011;5689;48.798;9.070;2023-07-31T09:22:44;0.00;;;0.00;;
11263;SDS011;5689;48.798;9.070;2023-07-31T09:25:14;0.10;;;0.10;;
11263;SDS011;5689;48.798;9.070;2023-07-31T09:27:47;0.00;;;0.00;;
11263;SDS011;5689;48.798;9.070;2023-07-31T09:30:16;0.00;;;0.00;;
11263;SDS011;5689;48.798;9.070;2023-07-31T09:32:45;0.00;;;0.00;;
11263;SDS011;5689;48.798;9.070;2023-07-31T09:35:22;0.00;;;0.00;;
11263;SDS011;5689;48.798;9.070;2023-07-31T09:37:56;0.00;;;0.00;;
11263;SDS011;5689;48.798;9.070;2023-07-31T09:40:26;0.00;;;0.00;;
11263;SDS011;5689;48.798;9.070;2023-07-31T09:42:59;0.10;;;0.10;;
11263;SDS011;5689;48.798;9.070;2023-07-31T09:45:27;0.10;;;0.10;;
11263;SDS011;5689;48.798;9.070;2023-07-31T09:48:01;0.10;;;0.10;;
11263;SDS011;5689;48.798;9.070;2023-07-31T09:50:31;0.03;;;0.03;;
11263;SDS011;5689;48.798;9.070;2023-07-31T09:53:00;0.00;;;0.00;;
11263;SDS011;5689;48.798;9.070;2023-07-31T09:55:28;0.00;;;0.00;;
11263;SDS011;5689;48.798;9.070;2023-07-31T09:57:57;0.00;;;0.00;;
11263;SDS011;5689;48.798;9.070;2023-07-31T10:00:26;0.10;;;0.10;;
11263;SDS011;5689;48.798;9.070;2023-07-31T10:02:54;0.00;;;0.00;;
11263;SDS011;5689;48.798;9.070;2023-07-31T10:05:26;0.00;;;0.00;;
11263;SDS011;5689;48.798;9.070;2023-07-31T10:08:01;0.00;;;0.00;;
11263;SDS011;5689;48.798;9.070;2023-07-31T10:10:30;0.00;;;0.00;;
11263;SDS011;5689;48.798;9.070;2023-07-31T10:12:59;0.00;;;0.00;;
11263;SDS011;5689;48.798;9.070;2023-07-31T10:15:28;0.00;;;0.00;;
11263;SDS011;5689;48.798;9.070;2023-07-31T10:17:57;0.00;;;0.00;;
11263;SDS011;5689;48.798;9.070;2023-07-31T10:20:26;0.00;;;0.00;;
11263;SDS011;5689;48.798;9.070;2023-07-31T10:22:56;0.00;;;0.00;;
11263;SDS011;5689;48.798;9.070;2023-07-31T10:25:25;0.00;;;0.00;;
11263;SDS011;5689;48.798;9.070;2023-07-31T10:27:54;0.00;;;0.00;;
11263;SDS011;5689;48.798;9.070;2023-07-31T10:30:24;0.00;;;0.00;;
11263;SDS011;5689;48.798;9.070;2023-07-31T10:32:55;0.00;;;0.00;;
11263;SDS011;5689;48.798;9.070;2023-07-31T10:35:24;0.00;;;0.00;;
11263;SDS011;5689;48.798;9.070;2023-07-31T10:37:52;0.00;;;0.00;;
11263;SDS011;5689;48.798;9.070;2023-07-31T10:40:25;0.00;;;0.00;;
11263;SDS011;5689;48.798;9.070;2023-07-31T10:42:54;0.00;;;0.00;;
11263;SDS011;5689;48.798;9.070;2023-07-31T10:45:24;0.10;;;0.10;;
11263;SDS011;5689;48.798;9.070;2023-07-31T10:47:58;0.00;;;0.00;;
11263;SDS011;5689;48.798;9.070;2023-07-31T10:50:28;0.00;;;0.00;;
11263;SDS011;5689;48.798;9.070;2023-07-31T10:52:59;0.00;;;0.00;;
11263;SDS011;5689;48.798;9.070;2023-07-31T10:55:30;0.00;;;0.00;;
11263;SDS011;5689;48.798;9.070;2023-07-31T10:58:05;0.00;;;0.00;;
11263;SDS011;5689;48.798;9.070;2023-07-31T11:00:36;0.00;;;0.00;;
11263;SDS011;5689;48.798;9.070;2023-07-31T11:03:05;0.00;;;0.00;;
11263;SDS011;5689;48.798;9.070;2023-07-31T11:05:45;0.00;;;0.00;;
11263;SDS011;5689;48.798;9.070;2023-07-31T11:08:15;0.00;;;0.00;;
11263;SDS011;5689;48.798;9.070;2023-07-31T11:10:48;0.00;;;0.00;;
11263;SDS011;5689;48.798;9.070;2023-07-31T11:13:18;0.00;;;0.00;;
11263;SDS011;5689;48.798;9.070;2023-07-31T11:15:46;0.00;;;0.00;;
11263;SDS011;5689;48.798;9.070;2023-07-31T11:18:14;0.00;;;0.00;;
11263;SDS011;5689;48.798;9.070;2023-07-31T11:20:43;0.00;;;0.00;;
11263;SDS011;5689;48.798;9.070;2023-07-31T11:23:11;0.00;;;0.00;;
11263;SDS011;5689;48.798;9.070;2023-07-31T11:25:39;0.00;;;0.00;;
11263;SDS011;5689;48.798;9.070;2023-07-31T11:28:10;0.00;;;0.00;;
11263;SDS011;5689;48.798;9.070;2023-07-31T11:30:39;0.00;;;0.00;;
11263;SDS011;5689;48.798;9.070;2023-07-31T11:33:08;0.00;;;0.00;;
11263;SDS011;5689;48.798;9.070;2023-07-31T11:35:40;0.05;;;0.05;;
11263;SDS011;5689;48.798;9.070;2023-07-31T11:38:11;0.00;;;0.00;;
11263;SDS011;5689;48.798;9.070;2023-07-31T11:40:43;0.00;;;0.00;;
11263;SDS011;5689;48.798;9.070;2023-07-31T11:43:13;0.00;;;0.00;;
11263;SDS011;5689;48.798;9.070;2023-07-31T11:45:46;0.00;;;0.00;;
11263;SDS011;5689;48.798;9.070;2023-07-31T11:48:19;0.00;;;0.00;;
11263;SDS011;5689;48.798;9.070;2023-07-31T11:50:49;0.00;;;0.00;;
11263;SDS011;5689;48.798;9.070;2023-07-31T11:53:19;0.00;;;0.00;;
11263;SDS011;5689;48.798;9.070;2023-07-31T11:55:52;0.10;;;0.10;;
11263;SDS011;5689;48.798;9.070;2023-07-31T11:58:22;0.00;;;0.00;;
11263;SDS011;5689;48.798;9.070;2023-07-31T12:00:50;0.10;;;0.10;;
11263;SDS011;5689;48.798;9.070;2023-07-31T12:03:19;0.00;;;0.00;;
11263;SDS011;5689;48.798;9.070;2023-07-31T12:05:47;0.00;;;0.00;;
11263;SDS011;5689;48.798;9.070;2023-07-31T12:08:15;0.00;;;0.00;;
11263;SDS011;5689;48.798;9.070;2023-07-31T12:10:43;0.00;;;0.00;;
11263;SDS011;5689;48.798;9.070;2023-07-31T12:13:12;0.00;;;0.00;;
11263;SDS011;5689;48.798;9.070;2023-07-31T12:15:53;0.00;;;0.00;;
11263;SDS011;5689;48.798;9.070;2023-07-31T12:18:22;0.00;;;0.00;;
11263;SDS011;5689;48.798;9.070;2023-07-31T12:20:53;0.00;;;0.00;;
11263;SDS011;5689;48.798;9.070;2023-07-31T12:23:24;0.00;;;0.00;;
11263;SDS011;5689;48.798;9.070;2023-07-31T12:26:01;0.00;;;0.00;;
11263;SDS011;5689;48.798;9.070;2023-07-31T12:28:30;0.00;;;0.00;;
11263;SDS011;5689;48.798;9.070;2023-07-31T12:31:03;0.00;;;0.00;;
11263;SDS011;5689;48.798;9.070;2023-07-31T12:33:32;0.10;;;0.10;;
11263;SDS011;5689;48.798;9.070;2023-07-31T12:36:01;0.00;;;0.00;;
11263;SDS011;5689;48.798;9.070;2023-07-31T12:38:30;0.00;;;0.00;;
11263;SDS011;5689;48.798;9.070;2023-07-31T12:40:58;0.00;;;0.00;;
11263;SDS011;5689;48.798;9.070;2023-07-31T12:43:26;0.00;;;0.00;;
11263;SDS011;5689;48.798;9.070;2023-07-31T12:45:54;0.00;;;0.00;;
11263;SDS011;5689;48.798;9.070;2023-07-31T12:48:24;0.00;;;0.00;;
11263;SDS011;5689;48.798;9.070;2023-07-31T12:50:52;0.10;;;0.10;;
11263;SDS011;5689;48.798;9.070;2023-07-31T12:53:20;0.00;;;0.00;;
11263;SDS011;5689;48.798;9.070;2023-07-31T12:55:48;0.10;;;0.10;;
11263;SDS011;5689;48.798;9.070;2023-07-31T12:58:16;0.00;;;0.00;;
11263;SDS011;5689;48.798;9.070;2023-07-31T13:00:44;0.00;;;0.00;;
11263;SDS011;5689;48.798;9.070;2023-07-31T13:03:12;0.00;;;0.00;;
11263;SDS011;5689;48.798;9.070;2023-07-31T13:05:41;0.00;;;0.00;;
11263;SDS011;5689;48.798;9.070;2023-07-31T13:08:09;0.00;;;0.00;;
11263;SDS011;5689;48.798;9.070;2023-07-31T13:10:38;0.00;;;0.00;;
11263;SDS011;5689;48.798;9.070;2023-07-31T13:13:06;0.08;;;0.08;;
11263;SDS011;5689;48.798;9.070;2023-07-31T13:15:34;0.00;;;0.00;;
11263;SDS011;5689;48.798;9.070;2023-07-31T13:18:02;0.00;;;0.00;;
11263;SDS011;5689;48.798;9.070;2023-07-31T13:20:30;0.00;;;0.00;;
11263;SDS011;5689;48.798;9.070;2023-07-31T13:22:59;0.10;;;0.10;;
11263;SDS011;5689;48.798;9.070;2023-07-31T13:25:27;0.00;;;0.00;;
11263;SDS011;5689;48.798;9.070;2023-07-31T13:27:55;0.00;;;0.00;;
11263;SDS011;5689;48.798;9.070;2023-07-31T13:30:24;0.10;;;0.10;;
11263;SDS011;5689;48.798;9.070;2023-07-31T13:32:52;0.00;;;0.00;;
11263;SDS011;5689;48.798;9.070;2023-07-31T13:35:20;0.00;;;0.00;;
11263;SDS011;5689;48.798;9.070;2023-07-31T13:37:48;0.00;;;0.00;;
11263;SDS011;5689;48.798;9.070;2023-07-31T13:40:17;0.00;;;0.00;;
11263;SDS011;5689;48.798;9.070;2023-07-31T13:42:45;0.00;;;0.00;;
11263;SDS011;5689;48.798;9.070;2023-07-31T13:45:14;0.00;;;0.00;;
11263;SDS011;5689;48.798;9.070;2023-07-31T13:47:42;0.00;;;0.00;;
11263;SDS011;5689;48.798;9.070;2023-07-31T13:50:10;0.00;;;0.00;;
11263;SDS011;5689;48.798;9.070;2023-07-31T13:52:38;0.00;;;0.00;;
11263;SDS011;5689;48.798;9.070;2023-07-31T13:55:07;0.00;;;0.00;;
11263;SDS011;5689;48.798;9.070;2023-07-31T13:57:36;0.00;;;0.00;;
11263;SDS011;5689;48.798;9.070;2023-07-31T14:00:05;0.00;;;0.00;;
11263;SDS011;5689;48.798;9.070;2023-07-31T14:02:34;0.00;;;0.00;;
11263;SDS011;5689;48.798;9.070;2023-07-31T14:05:08;0.08;;;0.08;;
11263;SDS011;5689;48.798;9.070;2023-07-31T14:07:36;0.00;;;0.00;;
11263;SDS011;5689;48.798;9.070;2023-07-31T14:10:04;0.00;;;0.00;;
11263;SDS011;5689;48.798;9.070;2023-07-31T14:12:33;0.00;;;0.00;;
11263;SDS011;5689;48.798;9.070;2023-07-31T14:15:07;0.00;;;0.00;;
11263;SDS011;5689;48.798;9.070;2023-07-31T14:17:35;0.00;;;0.00;;
11263;SDS011;5689;48.798;9.070;2023-07-31T14:20:04;0.00;;;0.00;;
11263;SDS011;5689;48.798;9.070;2023-07-31T14:22:33;0.00;;;0.00;;
11263;SDS011;5689;48.798;9.070;2023-07-31T14:25:01;0.00;;;0.00;;
11263;SDS011;5689;48.798;9.070;2023-07-31T14:27:29;0.00;;;0.00;;
11263;SDS011;5689;48.798;9.070;2023-07-31T14:29:57;0.00;;;0.00;;
11263;SDS011;5689;48.798;9.070;2023-07-31T14:32:27;0.00;;;0.00;;
11263;SDS011;5689;48.798;9.070;2023-07-31T14:34:54;0.00;;;0.00;;
11263;SDS011;5689;48.798;9.070;2023-07-31T14:37:25;0.00;;;0.00;;
11263;SDS011;5689;48.798;9.070;2023-07-31T14:39:53;0.00;;;0.00;;
11263;SDS011;5689;48.798;9.070;2023-07-31T14:42:22;0.00;;;0.00;;
11263;SDS011;5689;48.798;9.070;2023-07-31T14:44:50;0.00;;;0.00;;
11263;SDS011;5689;48.798;9.070;2023-07-31T14:47:18;0.00;;;0.00;;
11263;SDS011;5689;48.798;9.070;2023-07-31T14:49:47;0.00;;;0.00;;
11263;SDS011;5689;48.798;9.070;2023-07-31T14:52:15;0.00;;;0.00;;
11263;SDS011;5689;48.798;9.070;2023-07-31T14:54:43;0.00;;;0.00;;
11263;SDS011;5689;48.798;9.070;2023-07-31T14:57:12;0.00;;;0.00;;
11263;SDS011;5689;48.798;9.070;2023-07-31T14:59:40;0.00;;;0.00;;
11263;SDS011;5689;48.798;9.070;2023-07-31T15:02:08;0.00;;;0.00;;
11263;SDS011;5689;48.798;9.070;2023-07-31T15:04:37;0.00;;;0.00;;
11263;SDS011;5689;48.798;9.070;2023-07-31T15:07:06;0.00;;;0.00;;
11263;SDS011;5689;48.798;9.070;2023-07-31T15:09:34;0.00;;;0.00;;
11263;SDS011;5689;48.798;9.070;2023-07-31T15:12:02;0.00;;;0.00;;